createdAt,value
2017-06-19T00:01:10.586Z,95437.62
2017-06-19T00:03:41.858Z,95441.58
2017-06-19T00:06:14.134Z,95443.48
2017-06-19T00:08:50.769Z,95443.61
2017-06-19T00:11:22.116Z,95438.61
2017-06-19T00:13:51.338Z,95451.67
2017-06-19T00:16:26.930Z,95448.16
2017-06-19T00:18:54.624Z,95443.47
2017-06-19T00:21:27.532Z,95453.42
2017-06-19T00:24:00.660Z,95452.45
2017-06-19T00:26:33.926Z,95445.58
2017-06-19T00:29:06.588Z,95448.69
2017-06-19T00:31:35.600Z,95451.37
2017-06-19T00:34:15.714Z,95460.72
2017-06-19T00:36:45.751Z,95455.34
2017-06-19T00:39:17.769Z,95465.74
2017-06-19T00:41:52.354Z,95465.31
2017-06-19T00:44:19.892Z,95464.86
2017-06-19T00:46:57.240Z,95460.41
2017-06-19T00:49:37.182Z,95453.17
2017-06-19T00:52:29.545Z,95457.59
2017-06-19T00:55:02.085Z,95462.47
2017-06-19T00:57:45.938Z,95468.15
2017-06-19T01:03:14.235Z,95466.19
2017-06-19T01:08:52.145Z,95457.46
2017-06-19T01:14:01.005Z,95457.50
2017-06-19T01:36:58.580Z,95474.90
2017-06-19T01:39:33.293Z,95483.59
2017-06-19T01:42:18.615Z,95479.75
2017-06-19T01:44:59.117Z,95473.48
2017-06-19T01:51:33.676Z,95468.14
2017-06-19T01:54:16.283Z,95472.29
2017-06-19T01:56:56.124Z,95470.70
2017-06-19T01:59:32.250Z,95473.81
2017-06-19T02:02:12.930Z,95473.08
2017-06-19T02:04:46.708Z,95476.25
2017-06-19T02:07:26.533Z,95492.75
2017-06-19T02:10:09.003Z,95499.48
2017-06-19T02:12:42.886Z,95504.67
2017-06-19T02:15:17.860Z,95504.17
2017-06-19T02:17:46.325Z,95508.83
2017-06-19T02:23:44.461Z,95500.55
2017-06-19T02:26:33.094Z,95510.43
2017-06-19T02:32:16.917Z,95517.31
2017-06-19T02:35:10.389Z,95537.75
2017-06-19T02:37:44.174Z,95545.61
2017-06-19T02:40:26.915Z,95539.98
2017-06-19T02:43:07.701Z,95542.86
2017-06-19T02:52:17.161Z,95543.42
2017-06-19T02:54:52.178Z,95542.75
2017-06-19T02:57:29.782Z,95554.07
2017-06-19T03:00:01.328Z,95546.45
2017-06-19T03:02:52.009Z,95553.41
2017-06-19T03:05:27.652Z,95555.08
2017-06-19T03:07:58.102Z,95564.80
2017-06-19T03:10:36.468Z,95568.02
2017-06-19T03:13:14.545Z,95577.88
2017-06-19T03:16:07.274Z,95581.33
2017-06-19T03:21:25.216Z,95584.84
2017-06-19T03:42:49.768Z,95576.62
2017-06-19T03:57:55.068Z,95578.11
2017-06-19T04:00:23.359Z,95598.52
2017-06-19T04:06:25.946Z,95606.66
2017-06-19T04:16:11.869Z,95623.87
2017-06-19T04:18:42.832Z,95634.80
2017-06-19T04:21:11.892Z,95638.71
2017-06-19T04:23:46.723Z,95630.02
2017-06-19T04:26:14.367Z,95628.13
2017-06-19T04:28:42.124Z,95624.75
2017-06-19T04:31:09.664Z,95641.37
2017-06-19T04:33:37.233Z,95644.20
2017-06-19T04:36:04.752Z,95647.06
2017-06-19T04:38:32.447Z,95642.09
2017-06-19T04:41:00.068Z,95648.95
2017-06-19T04:43:27.825Z,95658.34
2017-06-19T04:45:55.899Z,95664.83
2017-06-19T04:48:23.398Z,95669.40
2017-06-19T04:50:50.896Z,95672.31
2017-06-19T04:53:18.437Z,95678.02
2017-06-19T04:55:45.945Z,95679.20
2017-06-19T04:58:13.534Z,95636.16
2017-06-19T05:00:42.061Z,95683.18
2017-06-19T05:03:09.589Z,95685.00
2017-06-19T05:05:37.116Z,95694.06
2017-06-19T05:08:04.652Z,95689.09
2017-06-19T05:10:32.157Z,95697.77
2017-06-19T05:12:59.666Z,95684.70
2017-06-19T05:15:27.219Z,95688.14
2017-06-19T05:17:54.721Z,95699.44
2017-06-19T05:20:22.292Z,95692.67
2017-06-19T05:22:49.874Z,95700.77
2017-06-19T05:25:17.609Z,95694.28
2017-06-19T05:27:45.136Z,95690.54
2017-06-19T05:30:12.789Z,95693.39
2017-06-19T05:32:40.298Z,95708.77
2017-06-19T05:35:08.029Z,95702.58
2017-06-19T05:37:35.638Z,95702.05
2017-06-19T05:40:03.154Z,95704.31
2017-06-19T05:42:30.907Z,95700.24
2017-06-19T05:44:58.479Z,95699.05
2017-06-19T05:47:26.013Z,95695.31
2017-06-19T05:49:53.544Z,95694.51
2017-06-19T05:52:21.142Z,95701.80
2017-06-19T05:54:48.650Z,95711.38
2017-06-19T05:57:16.140Z,95717.30
2017-06-19T05:59:43.686Z,95720.92
2017-06-19T06:02:11.238Z,95724.84
2017-06-19T06:04:38.742Z,95727.41
2017-06-19T06:07:06.248Z,95726.44
2017-06-19T06:09:33.838Z,95728.92
2017-06-19T06:12:02.406Z,95736.67
2017-06-19T06:14:29.921Z,95738.13
2017-06-19T06:16:57.594Z,95735.22
2017-06-19T06:19:25.154Z,95738.48
2017-06-19T06:21:52.892Z,95727.84
2017-06-19T06:24:20.438Z,95722.45
2017-06-19T06:26:47.957Z,95720.89
2017-06-19T06:29:15.758Z,95724.27
2017-06-19T06:31:43.837Z,95726.56
2017-06-19T06:34:11.355Z,95727.34
2017-06-19T06:36:38.858Z,95736.45
2017-06-19T06:39:06.476Z,95749.74
2017-06-19T06:41:33.993Z,95752.48
2017-06-19T06:44:01.807Z,95755.67
2017-06-19T06:46:29.350Z,95749.22
2017-06-19T06:48:56.844Z,95743.19
2017-06-19T06:51:24.414Z,95744.50
2017-06-19T06:53:51.985Z,95744.28
2017-06-19T06:56:19.541Z,95746.67
2017-06-19T06:58:47.107Z,95749.25
2017-06-19T07:01:14.662Z,95749.74
2017-06-19T07:03:42.184Z,95755.05
2017-06-19T07:06:09.690Z,95753.33
2017-06-19T07:08:37.315Z,95747.98
2017-06-19T07:11:04.853Z,95755.75
2017-06-19T07:13:32.363Z,95755.58
2017-06-19T07:15:59.912Z,95764.41
2017-06-19T07:18:27.420Z,95772.28
2017-06-19T07:20:54.922Z,95766.06
2017-06-19T07:23:22.458Z,95761.91
2017-06-19T07:25:49.974Z,95756.05
2017-06-19T07:28:17.522Z,95754.95
2017-06-19T07:30:45.207Z,95759.98
2017-06-19T07:33:12.752Z,95764.69
2017-06-19T07:35:40.845Z,95766.56
2017-06-19T07:38:08.411Z,95763.71
2017-06-19T07:40:35.911Z,95763.34
2017-06-19T07:43:03.404Z,95762.28
2017-06-19T07:45:30.951Z,95758.09
2017-06-19T07:47:59.481Z,95761.80
2017-06-19T07:50:30.761Z,95779.31
2017-06-19T07:52:58.699Z,95771.72
2017-06-19T07:55:26.250Z,95785.28
2017-06-19T07:57:53.862Z,95789.28
2017-06-19T08:00:21.551Z,95793.83
2017-06-19T08:02:49.058Z,95789.67
2017-06-19T08:05:16.658Z,95799.31
2017-06-19T08:07:44.229Z,95805.44
2017-06-19T08:10:11.750Z,95817.25
2017-06-19T08:12:39.253Z,95815.31
2017-06-19T08:15:06.866Z,95820.11
2017-06-19T08:17:34.402Z,95826.14
2017-06-19T08:20:01.914Z,95815.63
2017-06-19T08:22:29.487Z,95810.91
2017-06-19T08:24:56.998Z,95816.97
2017-06-19T08:27:24.533Z,95818.51
2017-06-19T08:29:52.079Z,95827.19
2017-06-19T08:32:19.707Z,95822.59
2017-06-19T08:34:47.225Z,95833.77
2017-06-19T08:37:14.740Z,95831.69
2017-06-19T08:39:42.301Z,95832.75
2017-06-19T08:42:09.809Z,95832.55
2017-06-19T08:44:37.313Z,95830.42
2017-06-19T08:47:04.907Z,95830.59
2017-06-19T08:49:32.470Z,95831.60
2017-06-19T08:51:59.981Z,95840.53
2017-06-19T08:54:27.516Z,95826.95
2017-06-19T08:56:55.024Z,95825.19
2017-06-19T08:59:22.529Z,95829.93
2017-06-19T09:01:50.078Z,95837.77
2017-06-19T09:04:17.576Z,95834.05
2017-06-19T09:06:45.078Z,95836.39
2017-06-19T09:09:12.630Z,95842.47
2017-06-19T09:11:40.144Z,95846.09
2017-06-19T09:14:07.714Z,95843.77
2017-06-19T09:16:35.278Z,95838.18
2017-06-19T09:19:02.788Z,95827.18
2017-06-19T09:21:30.304Z,95828.14
2017-06-19T09:23:57.885Z,95832.59
2017-06-19T09:26:25.424Z,95826.61
2017-06-19T09:28:52.929Z,95823.05
2017-06-19T09:31:20.522Z,95827.33
2017-06-19T09:33:48.054Z,95826.54
2017-06-19T09:36:15.562Z,95826.44
2017-06-19T09:38:43.095Z,95831.52
2017-06-19T09:41:10.620Z,95823.50
2017-06-19T09:43:38.124Z,95815.09
2017-06-19T09:46:05.715Z,95815.95
2017-06-19T09:48:33.253Z,95818.19
2017-06-19T09:51:00.756Z,95812.78
2017-06-19T09:53:28.321Z,95809.42
2017-06-19T09:55:55.835Z,95810.25
2017-06-19T09:58:23.346Z,95808.42
2017-06-19T10:00:50.922Z,95803.28
2017-06-19T10:03:18.433Z,95814.16
2017-06-19T10:05:45.974Z,95801.75
2017-06-19T10:08:13.503Z,95797.42
2017-06-19T10:10:41.080Z,95806.30
2017-06-19T10:13:08.601Z,95799.16
2017-06-19T10:15:36.152Z,95803.09
2017-06-19T10:18:03.652Z,95803.81
2017-06-19T10:20:31.172Z,95796.47
2017-06-19T10:22:58.716Z,95794.40
2017-06-19T10:25:26.214Z,95786.81
2017-06-19T10:27:53.737Z,95791.61
2017-06-19T10:30:21.495Z,95786.86
2017-06-19T10:32:49.018Z,95781.24
2017-06-19T10:35:16.529Z,95784.83
2017-06-19T10:37:44.133Z,95787.14
2017-06-19T10:40:11.696Z,95789.11
2017-06-19T10:42:39.222Z,95791.28
2017-06-19T10:45:06.763Z,95795.52
2017-06-19T10:47:34.357Z,95791.35
2017-06-19T10:50:01.916Z,95790.48
2017-06-19T10:52:29.447Z,95796.16
2017-06-19T10:54:57.017Z,95795.57
2017-06-19T10:57:24.543Z,95802.08
2017-06-19T10:59:52.094Z,95813.73
2017-06-19T11:02:19.668Z,95809.30
2017-06-19T11:04:47.234Z,95813.01
2017-06-19T11:07:14.745Z,95810.11
2017-06-19T11:09:42.330Z,95819.13
2017-06-19T11:12:09.830Z,95797.12
2017-06-19T11:14:37.328Z,95806.16
2017-06-19T11:17:04.908Z,95798.52
2017-06-19T11:19:32.414Z,95795.55
2017-06-19T11:21:59.922Z,95801.45
2017-06-19T11:24:27.513Z,95815.59
2017-06-19T11:26:55.027Z,95813.23
2017-06-19T11:29:22.554Z,95813.82
2017-06-19T11:31:50.093Z,95804.13
2017-06-19T11:34:17.589Z,95799.84
2017-06-19T11:36:45.173Z,95796.69
2017-06-19T11:39:13.525Z,95793.41
2017-06-19T11:41:49.212Z,95790.46
2017-06-19T11:44:16.816Z,95776.34
2017-06-19T11:46:44.818Z,95776.73
2017-06-19T11:49:12.337Z,95771.42
2017-06-19T11:51:40.812Z,95772.78
2017-06-19T11:54:08.352Z,95763.68
2017-06-19T11:56:35.906Z,95763.28
2017-06-19T11:59:03.495Z,95758.17
2017-06-19T12:01:31.056Z,95753.27
2017-06-19T12:03:58.570Z,95756.63
2017-06-19T12:06:26.087Z,95753.52
2017-06-19T12:08:53.682Z,95757.45
2017-06-19T12:11:21.188Z,95749.34
2017-06-19T12:13:48.739Z,95753.52
2017-06-19T12:16:16.324Z,95749.70
2017-06-19T12:18:43.878Z,95751.83
2017-06-19T12:21:11.385Z,95754.37
2017-06-19T12:23:39.735Z,95749.00
2017-06-19T12:26:07.260Z,95753.02
2017-06-19T12:28:34.811Z,95753.19
2017-06-19T12:31:02.352Z,95750.28
2017-06-19T12:33:29.878Z,95748.47
2017-06-19T12:35:57.773Z,95749.72
2017-06-19T12:38:25.319Z,95745.36
2017-06-19T12:40:52.850Z,95738.06
2017-06-19T12:43:20.360Z,95737.16
2017-06-19T12:45:47.896Z,95734.47
2017-06-19T12:48:15.458Z,95728.06
2017-06-19T12:50:43.011Z,95725.49
2017-06-19T12:53:10.626Z,95723.39
2017-06-19T12:55:38.203Z,95722.73
2017-06-19T12:58:05.708Z,95730.13
2017-06-19T13:00:33.510Z,95722.25
2017-06-19T13:03:01.013Z,95722.31
2017-06-19T13:05:28.509Z,95723.76
2017-06-19T13:07:56.076Z,95729.83
2017-06-19T13:10:23.606Z,95728.81
2017-06-19T13:12:51.106Z,95718.86
2017-06-19T13:15:18.665Z,95715.96
2017-06-19T13:17:46.179Z,95716.19
2017-06-19T13:20:13.709Z,95718.00
2017-06-19T13:22:41.399Z,95714.03
2017-06-19T13:25:08.992Z,95712.19
2017-06-19T13:27:36.506Z,95718.42
2017-06-19T13:30:11.191Z,95717.30
2017-06-19T13:32:38.704Z,95722.05
2017-06-19T13:35:06.205Z,95721.95
2017-06-19T13:37:33.768Z,95726.09
2017-06-19T13:40:01.296Z,95715.45
2017-06-19T13:42:28.863Z,95718.20
2017-06-19T13:44:56.412Z,95713.73
2017-06-19T13:47:23.915Z,95711.17
2017-06-19T13:49:51.432Z,95712.66
2017-06-19T13:52:18.988Z,95713.39
2017-06-19T13:54:46.499Z,95707.59
2017-06-19T13:57:14.309Z,95709.03
2017-06-19T13:59:41.883Z,95706.27
2017-06-19T14:02:09.725Z,95707.70
2017-06-19T14:04:37.225Z,95706.98
2017-06-19T14:07:04.741Z,95710.80
2017-06-19T14:09:32.354Z,95708.27
2017-06-19T14:11:59.861Z,95707.52
2017-06-19T14:14:27.363Z,95714.05
2017-06-19T14:16:55.292Z,95708.08
2017-06-19T14:19:22.974Z,95709.03
2017-06-19T14:21:50.467Z,95698.57
2017-06-19T14:24:18.147Z,95709.75
2017-06-19T14:26:45.756Z,95712.64
2017-06-19T14:29:13.660Z,95702.13
2017-06-19T14:31:41.249Z,95700.61
2017-06-19T14:34:08.777Z,95704.20
2017-06-19T14:36:36.563Z,95704.78
2017-06-19T14:39:11.509Z,95706.26
2017-06-19T14:41:39.052Z,95708.16
2017-06-19T14:44:06.620Z,95708.19
2017-06-19T14:46:34.197Z,95702.64
2017-06-19T14:49:01.769Z,95706.52
2017-06-19T14:51:29.344Z,95699.82
2017-06-19T14:53:56.912Z,95702.36
2017-06-19T14:56:24.421Z,95703.59
2017-06-19T14:58:51.949Z,95700.16
2017-06-19T15:01:19.579Z,95696.11
2017-06-19T15:03:47.409Z,95697.10
2017-06-19T15:06:14.937Z,95710.52
2017-06-19T15:08:43.292Z,95706.20
2017-06-19T15:11:10.864Z,95700.03
2017-06-19T15:13:38.430Z,95710.72
2017-06-19T15:16:06.005Z,95704.33
2017-06-19T15:18:33.535Z,95703.20
2017-06-19T15:21:16.783Z,95702.02
2017-06-19T15:23:49.974Z,95702.72
2017-06-19T15:26:17.550Z,95701.91
2017-06-19T15:28:45.084Z,95694.47
2017-06-19T15:31:12.656Z,95701.36
2017-06-19T15:33:40.189Z,95697.14
2017-06-19T15:36:07.710Z,95693.53
2017-06-19T15:38:35.241Z,95698.89
2017-06-19T15:41:03.554Z,95691.59
2017-06-19T15:43:31.053Z,95689.38
2017-06-19T15:45:58.606Z,95691.52
2017-06-19T15:48:26.234Z,95694.16
2017-06-19T15:50:53.758Z,95694.09
2017-06-19T15:53:21.359Z,95698.08
2017-06-19T15:55:48.896Z,95694.45
2017-06-19T15:58:16.404Z,95698.95
2017-06-19T16:00:43.990Z,95702.35
2017-06-19T16:03:11.512Z,95700.14
2017-06-19T16:05:39.024Z,95705.20
2017-06-19T16:08:06.671Z,95708.19
2017-06-19T16:10:34.178Z,95708.34
2017-06-19T16:13:01.690Z,95703.61
2017-06-19T16:15:30.135Z,95709.28
2017-06-19T16:17:57.637Z,95714.14
2017-06-19T16:20:25.149Z,95711.55
2017-06-19T16:22:52.733Z,95708.06
2017-06-19T16:25:21.152Z,95711.02
2017-06-19T16:27:48.862Z,95718.05
2017-06-19T16:30:16.780Z,95718.19
2017-06-19T16:32:44.290Z,95720.72
2017-06-19T16:35:11.789Z,95716.77
2017-06-19T16:37:40.075Z,95716.72
2017-06-19T16:40:08.080Z,95721.02
2017-06-19T16:42:35.593Z,95719.72
2017-06-19T16:45:03.141Z,95720.12
2017-06-19T16:47:30.995Z,95721.30
2017-06-19T16:49:58.568Z,95722.06
2017-06-19T16:52:26.208Z,95722.63
2017-06-19T16:54:54.327Z,95727.95
2017-06-19T16:57:22.129Z,95730.89
2017-06-19T16:59:49.836Z,95730.39
2017-06-19T17:02:17.506Z,95729.47
2017-06-19T17:04:45.066Z,95734.95
2017-06-19T17:07:12.569Z,95735.36
2017-06-19T17:09:40.128Z,95739.70
2017-06-19T17:12:07.688Z,95741.14
2017-06-19T17:14:35.216Z,95739.83
2017-06-19T17:17:03.409Z,95749.80
2017-06-19T17:19:30.969Z,95749.66
2017-06-19T17:21:58.516Z,95750.55
2017-06-19T17:24:26.306Z,95747.64
2017-06-19T17:26:54.377Z,95754.34
2017-06-19T17:29:22.695Z,95740.20
2017-06-19T17:31:50.431Z,95752.62
2017-06-19T17:34:17.993Z,95748.52
2017-06-19T17:36:46.391Z,95742.97
2017-06-19T17:39:13.945Z,95745.81
2017-06-19T17:41:41.898Z,95749.46
2017-06-19T17:44:09.657Z,95750.98
2017-06-19T17:46:37.702Z,95746.08
2017-06-19T17:49:06.931Z,95738.44
2017-06-19T17:51:35.042Z,95749.80
2017-06-19T17:54:02.629Z,95740.27
2017-06-19T17:56:30.588Z,95744.86
2017-06-19T17:58:58.722Z,95741.51
2017-06-19T18:01:26.660Z,95739.67
2017-06-19T18:03:54.360Z,95747.15
2017-06-19T18:06:21.957Z,95746.56
2017-06-19T18:08:49.579Z,95741.45
2017-06-19T18:11:17.120Z,95748.37
2017-06-19T18:13:45.093Z,95749.56
2017-06-19T18:16:12.772Z,95755.84
2017-06-19T18:18:40.937Z,95759.80
2017-06-19T18:21:09.122Z,95757.03
2017-06-19T18:23:36.722Z,95755.05
2017-06-19T18:26:04.906Z,95761.92
2017-06-19T18:28:32.441Z,95759.56
2017-06-19T18:30:59.998Z,95755.47
2017-06-19T18:33:27.541Z,95763.74
2017-06-19T18:35:55.067Z,95771.98
2017-06-19T18:38:22.675Z,95775.12
2017-06-19T18:40:50.215Z,95771.59
2017-06-19T18:43:17.742Z,95774.73
2017-06-19T18:45:45.329Z,95780.66
2017-06-19T18:48:12.885Z,95777.52
2017-06-19T18:50:40.684Z,95777.30
2017-06-19T18:53:08.324Z,95785.16
2017-06-19T18:55:35.877Z,95782.41
2017-06-19T18:58:03.404Z,95784.19
2017-06-19T19:00:31.145Z,95790.09
2017-06-19T19:02:58.667Z,95785.37
2017-06-19T19:05:26.445Z,95783.39
2017-06-19T19:07:54.068Z,95788.31
2017-06-19T19:10:21.602Z,95783.41
2017-06-19T19:12:49.178Z,95785.34
2017-06-19T19:15:16.749Z,95785.34
2017-06-19T19:17:44.286Z,95792.38
2017-06-19T19:20:12.131Z,95788.47
2017-06-19T19:22:39.697Z,95788.84
2017-06-19T19:25:07.220Z,95797.49
2017-06-19T19:27:34.953Z,95795.91
2017-06-19T19:30:06.240Z,95799.47
2017-06-19T19:32:33.795Z,95804.78
2017-06-19T19:35:01.310Z,95810.14
2017-06-19T19:37:28.865Z,95810.78
2017-06-19T19:39:56.390Z,95804.13
2017-06-19T19:42:24.145Z,95809.59
2017-06-19T19:44:51.773Z,95812.34
2017-06-19T19:47:19.338Z,95809.77
2017-06-19T19:49:46.907Z,95806.82
2017-06-19T19:52:15.326Z,95812.69
2017-06-19T19:54:42.860Z,95813.88
2017-06-19T19:57:10.715Z,95808.73
2017-06-19T19:59:38.292Z,95809.11
2017-06-19T20:02:06.709Z,95812.83
2017-06-19T20:04:34.217Z,95808.50
2017-06-19T20:07:01.809Z,95810.39
2017-06-19T20:09:29.368Z,95814.63
2017-06-19T20:11:56.901Z,95822.67
2017-06-19T20:14:24.694Z,95823.89
2017-06-19T20:16:52.229Z,95825.23
2017-06-19T20:19:19.737Z,95823.75
2017-06-19T20:21:47.306Z,95828.70
2017-06-19T20:24:15.171Z,95828.05
2017-06-19T20:26:42.706Z,95836.19
2017-06-19T20:29:10.354Z,95840.59
2017-06-19T20:31:37.916Z,95838.23
2017-06-19T20:34:05.433Z,95847.96
2017-06-19T20:36:33.054Z,95844.94
2017-06-19T20:39:00.744Z,95852.61
2017-06-19T20:41:28.268Z,95849.69
2017-06-19T20:43:55.806Z,95848.72
2017-06-19T20:46:23.427Z,95839.56
2017-06-19T20:48:50.957Z,95842.84
2017-06-19T20:51:18.460Z,95840.98
2017-06-19T20:53:46.015Z,95836.96
2017-06-19T20:56:13.814Z,95847.01
2017-06-19T20:58:41.391Z,95833.58
2017-06-19T21:01:08.987Z,95833.22
2017-06-19T21:03:36.747Z,95836.12
2017-06-19T21:06:04.608Z,95834.73
2017-06-19T21:08:32.201Z,95835.53
2017-06-19T21:10:59.713Z,95832.52
2017-06-19T21:13:27.240Z,95837.32
2017-06-19T21:15:54.813Z,95845.09
2017-06-19T21:18:22.578Z,95840.86
2017-06-19T21:20:50.092Z,95839.32
2017-06-19T21:23:17.666Z,95849.25
2017-06-19T21:25:45.185Z,95853.25
2017-06-19T21:28:12.961Z,95855.05
2017-06-19T21:30:40.522Z,95858.95
2017-06-19T21:33:08.034Z,95853.64
2017-06-19T21:35:35.558Z,95855.30
2017-06-19T21:38:03.180Z,95851.75
2017-06-19T21:40:30.724Z,95854.44
2017-06-19T21:42:58.512Z,95852.43
2017-06-19T21:45:26.078Z,95854.94
2017-06-19T21:47:53.589Z,95852.48
2017-06-19T21:50:21.133Z,95853.02
2017-06-19T21:52:48.673Z,95854.05
2017-06-19T21:55:16.199Z,95781.22
2017-06-19T21:57:43.789Z,95853.02
2017-06-19T22:00:11.410Z,95851.17
2017-06-19T22:02:38.938Z,95854.97
2017-06-19T22:05:06.499Z,95833.72
2017-06-19T22:07:34.143Z,95860.61
2017-06-19T22:10:01.711Z,95856.00
2017-06-19T22:12:29.219Z,95851.67
2017-06-19T22:14:56.809Z,95851.25
2017-06-19T22:17:24.432Z,95848.55
2017-06-19T22:19:52.018Z,95850.70
2017-06-19T22:22:35.411Z,95851.52
2017-06-19T22:25:02.995Z,95847.66
2017-06-19T22:27:30.530Z,95844.34
2017-06-19T22:29:58.158Z,95838.70
2017-06-19T22:32:25.727Z,95845.16
2017-06-19T22:34:53.241Z,95838.98
2017-06-19T22:37:21.013Z,95834.78
2017-06-19T22:39:48.585Z,95842.25
2017-06-19T22:42:16.113Z,95833.66
2017-06-19T22:44:43.691Z,95807.81
2017-06-19T22:47:11.253Z,95832.77
2017-06-19T22:49:38.793Z,95831.18
2017-06-19T22:52:06.335Z,95834.91
2017-06-19T22:54:33.880Z,95831.67
2017-06-19T22:57:01.693Z,95835.72
2017-06-19T22:59:29.456Z,95835.50
2017-06-19T23:01:57.017Z,95833.98
2017-06-19T23:04:24.556Z,95832.27
2017-06-19T23:06:52.743Z,95832.98
2017-06-19T23:09:20.372Z,95835.32
2017-06-19T23:11:48.926Z,95805.07
2017-06-19T23:14:16.446Z,95833.38
2017-06-19T23:16:44.016Z,95828.06
2017-06-19T23:19:11.518Z,95826.56
2017-06-19T23:21:39.046Z,95827.22
2017-06-19T23:24:06.611Z,95828.73
2017-06-19T23:26:34.405Z,95836.88
2017-06-19T23:29:01.958Z,95827.98
2017-06-19T23:31:29.676Z,95833.78
2017-06-19T23:33:57.212Z,95824.12
2017-06-19T23:36:25.082Z,95822.70
2017-06-19T23:38:52.713Z,95821.02
2017-06-19T23:41:20.303Z,95822.55
2017-06-19T23:43:47.833Z,95821.66
2017-06-19T23:46:15.391Z,95814.97
2017-06-19T23:48:42.942Z,95815.86
2017-06-19T23:51:10.721Z,95814.97
2017-06-19T23:53:38.388Z,95819.63
2017-06-19T23:56:05.904Z,95813.00
2017-06-19T23:58:33.544Z,95816.70
